createdAt,value
2019-05-23T00:00:43.010Z,101793.69
2019-05-23T00:03:14.833Z,101787.71
2019-05-23T00:06:02.749Z,101792.18
2019-05-23T00:08:37.645Z,101796.22
2019-05-23T00:11:33.994Z,101796.22
2019-05-23T00:14:18.441Z,101796.22
2019-05-23T00:16:48.749Z,101791.38
2019-05-23T00:19:18.874Z,101790.06
2019-05-23T00:21:50.391Z,101790.13
2019-05-23T00:24:22.340Z,101787.62
2019-05-23T00:26:54.720Z,101788.98
2019-05-23T00:29:26.074Z,101788.98
2019-05-23T00:32:01.021Z,101783.03
2019-05-23T00:34:34.415Z,101780.78
2019-05-23T00:37:07.278Z,101782.87
2019-05-23T00:39:38.676Z,101782.87
2019-05-23T00:42:09.092Z,101774.33
2019-05-23T00:44:42.323Z,101775.23
2019-05-23T00:47:13.733Z,101774.17
2019-05-23T00:49:43.769Z,101776.34
2019-05-23T00:52:15.700Z,101775.69
2019-05-23T00:54:47.347Z,101767.09
2019-05-23T00:57:17.440Z,101773.30
2019-05-23T00:59:47.700Z,101770.23
2019-05-23T01:02:17.092Z,101776.97
2019-05-23T01:04:47.792Z,101772.00
2019-05-23T01:07:17.100Z,101772.00
2019-05-23T01:09:46.259Z,101763.08
2019-05-23T01:12:15.866Z,101767.20
2019-05-23T01:14:45.548Z,101761.70
2019-05-23T01:17:17.129Z,101763.02
2019-05-23T01:19:47.135Z,101763.02
2019-05-23T01:22:18.805Z,101764.30
2019-05-23T01:24:51.577Z,101769.14
2019-05-23T01:27:20.770Z,101769.82
2019-05-23T01:29:51.726Z,101768.77
2019-05-23T01:32:37.683Z,101767.39
2019-05-23T01:35:09.033Z,101764.25
2019-05-23T01:37:39.556Z,101764.53
2019-05-23T01:40:09.794Z,101764.53
2019-05-23T01:42:40.174Z,101755.00
2019-05-23T01:45:14.210Z,101747.02
2019-05-23T01:47:43.882Z,101751.89
2019-05-23T01:50:14.147Z,101742.63
2019-05-23T01:52:43.325Z,101741.42
2019-05-23T01:55:12.951Z,101744.68
2019-05-23T01:57:42.681Z,101736.55
2019-05-23T02:00:15.570Z,101736.55
2019-05-23T02:02:44.944Z,101746.02
2019-05-23T02:05:16.785Z,101746.70
2019-05-23T02:07:46.436Z,101745.16
2019-05-23T02:10:17.605Z,101747.20
2019-05-23T02:12:47.629Z,101737.67
2019-05-23T02:15:18.222Z,101738.54
2019-05-23T02:17:47.420Z,101738.54
2019-05-23T02:20:19.088Z,101737.70
2019-05-23T02:22:49.251Z,101738.51
2019-05-23T02:25:22.928Z,101738.51
2019-05-23T02:27:53.496Z,101741.45
2019-05-23T02:30:33.846Z,101737.79
2019-05-23T02:32:57.284Z,101737.79
2019-05-23T02:35:27.006Z,101732.11
2019-05-23T02:38:21.905Z,101729.13
2019-05-23T02:41:02.429Z,101729.13
2019-05-23T02:43:34.853Z,101726.48
2019-05-23T02:46:09.302Z,101716.61
2019-05-23T02:48:43.157Z,101715.52
2019-05-23T02:51:23.804Z,101721.44
2019-05-23T02:53:55.901Z,101718.03
2019-05-23T02:56:29.497Z,101712.09
2019-05-23T02:59:33.443Z,101712.63
2019-05-23T03:02:49.083Z,101717.76
2019-05-23T03:05:25.006Z,101719.72
2019-05-23T03:07:54.305Z,101719.80
2019-05-23T03:10:24.339Z,101707.45
2019-05-23T03:12:55.787Z,101718.41
2019-05-23T03:15:32.124Z,101717.61
2019-05-23T03:18:08.185Z,101718.94
2019-05-23T03:20:39.206Z,101713.38
2019-05-23T03:23:17.652Z,101707.59
2019-05-23T03:26:36.477Z,101703.20
2019-05-23T03:29:08.624Z,101703.20
2019-05-23T03:31:46.695Z,101706.05
2019-05-23T03:34:20.354Z,101703.98
2019-05-23T03:36:51.260Z,101703.98
2019-05-23T03:39:20.758Z,101703.02
2019-05-23T03:41:51.687Z,101702.74
2019-05-23T03:44:20.809Z,101694.80
2019-05-23T03:46:52.772Z,101698.41
2019-05-23T03:49:21.940Z,101702.72
2019-05-23T03:51:51.101Z,101698.78
2019-05-23T03:54:20.982Z,101694.18
2019-05-23T03:56:52.423Z,101691.05
2019-05-23T03:59:22.552Z,101691.05
2019-05-23T04:01:54.789Z,101687.19
2019-05-23T04:04:24.655Z,101685.56
2019-05-23T04:06:54.946Z,101689.69
2019-05-23T04:09:24.292Z,101682.67
2019-05-23T04:11:53.553Z,101683.64
2019-05-23T04:14:23.103Z,101683.20
2019-05-23T04:16:54.034Z,101684.01
2019-05-23T04:19:23.531Z,101678.09
2019-05-23T04:21:53.490Z,101684.75
2019-05-23T04:24:24.167Z,101687.33
2019-05-23T04:26:53.762Z,101678.14
2019-05-23T04:29:23.130Z,101678.72
2019-05-23T04:32:07.161Z,101676.47
2019-05-23T04:34:26.857Z,101679.69
2019-05-23T04:36:59.216Z,101679.59
2019-05-23T04:39:30.682Z,101676.30
2019-05-23T04:41:59.925Z,101677.23
2019-05-23T04:44:29.696Z,101669.59
2019-05-23T04:47:00.404Z,101672.98
2019-05-23T04:49:31.346Z,101675.53
2019-05-23T04:52:02.599Z,101671.36
2019-05-23T04:54:32.655Z,101667.52
2019-05-23T04:57:06.448Z,101668.02
2019-05-23T04:59:36.426Z,101672.04
2019-05-23T05:02:24.757Z,101672.04
2019-05-23T05:04:40.673Z,101683.95
2019-05-23T05:07:12.914Z,101683.95
2019-05-23T05:09:44.493Z,101683.79
2019-05-23T05:12:18.482Z,101683.79
2019-05-23T05:14:49.132Z,101685.69
2019-05-23T05:17:18.888Z,101686.30
2019-05-23T05:19:48.267Z,101688.47
2019-05-23T05:22:18.479Z,101687.25
2019-05-23T05:24:49.169Z,101691.62
2019-05-23T05:27:19.608Z,101686.56
2019-05-23T05:29:50.319Z,101686.56
